sensor_id;sensor_type;location;lat;lon;timestamp;P1;durP1;ratioP1;P2;durP2;ratioP2
56629;SDS011;42502;40.732;-74.254;2023-03-15T00:01:52;3.97;;;0.38;;
56629;SDS011;42502;40.732;-74.254;2023-03-15T00:03:53;4.05;;;0.45;;
56629;SDS011;42502;40.732;-74.254;2023-03-15T00:05:54;7.22;;;0.40;;
56629;SDS011;42502;40.732;-74.254;2023-03-15T00:08:14;5.05;;;0.40;;
56629;SDS011;42502;40.732;-74.254;2023-03-15T00:10:15;4.28;;;0.40;;
56629;SDS011;42502;40.732;-74.254;2023-03-15T00:12:16;4.97;;;0.40;;
56629;SDS011;42502;40.732;-74.254;2023-03-15T00:14:17;7.47;;;0.47;;
56629;SDS011;42502;40.732;-74.254;2023-03-15T00:16:18;6.25;;;0.50;;
56629;SDS011;42502;40.732;-74.254;2023-03-15T00:18:19;7.97;;;0.40;;
56629;SDS011;42502;40.732;-74.254;2023-03-15T00:20:20;4.00;;;0.35;;
56629;SDS011;42502;40.732;-74.254;2023-03-15T00:22:21;2.38;;;0.40;;
56629;SDS011;42502;40.732;-74.254;2023-03-15T00:24:22;4.93;;;0.40;;
56629;SDS011;42502;40.732;-74.254;2023-03-15T00:26:23;6.18;;;0.30;;
56629;SDS011;42502;40.732;-74.254;2023-03-15T00:28:23;2.30;;;0.30;;
56629;SDS011;42502;40.732;-74.254;2023-03-15T00:30:30;8.65;;;0.70;;
56629;SDS011;42502;40.732;-74.254;2023-03-15T00:32:32;5.68;;;0.38;;
56629;SDS011;42502;40.732;-74.254;2023-03-15T00:34:32;4.57;;;0.40;;
56629;SDS011;42502;40.732;-74.254;2023-03-15T00:36:33;3.90;;;0.30;;
56629;SDS011;42502;40.732;-74.254;2023-03-15T00:38:38;3.90;;;0.35;;
56629;SDS011;42502;40.732;-74.254;2023-03-15T00:40:45;6.43;;;0.40;;
56629;SDS011;42502;40.732;-74.254;2023-03-15T00:42:46;2.20;;;0.38;;
56629;SDS011;42502;40.732;-74.254;2023-03-15T00:44:49;4.20;;;0.40;;
56629;SDS011;42502;40.732;-74.254;2023-03-15T00:46:50;2.13;;;0.32;;
56629;SDS011;42502;40.732;-74.254;2023-03-15T00:48:51;3.42;;;0.30;;
56629;SDS011;42502;40.732;-74.254;2023-03-15T00:51:01;1.77;;;0.25;;
56629;SDS011;42502;40.732;-74.254;2023-03-15T00:53:06;3.42;;;0.45;;
56629;SDS011;42502;40.732;-74.254;2023-03-15T00:55:12;6.43;;;0.40;;
56629;SDS011;42502;40.732;-74.254;2023-03-15T00:57:15;1.13;;;0.30;;
56629;SDS011;42502;40.732;-74.254;2023-03-15T00:59:16;4.32;;;0.40;;
56629;SDS011;42502;40.732;-74.254;2023-03-15T01:01:21;4.78;;;0.30;;
56629;SDS011;42502;40.732;-74.254;2023-03-15T01:03:28;3.60;;;0.75;;
56629;SDS011;42502;40.732;-74.254;2023-03-15T01:05:32;2.28;;;0.30;;
56629;SDS011;42502;40.732;-74.254;2023-03-15T01:07:33;2.42;;;0.25;;
56629;SDS011;42502;40.732;-74.254;2023-03-15T01:09:37;3.17;;;0.30;;
56629;SDS011;42502;40.732;-74.254;2023-03-15T01:11:38;3.35;;;0.43;;
56629;SDS011;42502;40.732;-74.254;2023-03-15T01:13:39;1.17;;;0.20;;
56629;SDS011;42502;40.732;-74.254;2023-03-15T01:15:43;0.95;;;0.25;;
56629;SDS011;42502;40.732;-74.254;2023-03-15T01:17:45;3.08;;;0.60;;
56629;SDS011;42502;40.732;-74.254;2023-03-15T01:19:46;2.85;;;0.28;;
56629;SDS011;42502;40.732;-74.254;2023-03-15T01:21:47;1.08;;;0.20;;
56629;SDS011;42502;40.732;-74.254;2023-03-15T01:23:51;1.48;;;0.22;;
56629;SDS011;42502;40.732;-74.254;2023-03-15T01:26:01;2.78;;;0.38;;
56629;SDS011;42502;40.732;-74.254;2023-03-15T01:28:03;2.37;;;0.30;;
56629;SDS011;42502;40.732;-74.254;2023-03-15T01:30:04;1.92;;;0.15;;
56629;SDS011;42502;40.732;-74.254;2023-03-15T01:32:06;2.70;;;0.20;;
56629;SDS011;42502;40.732;-74.254;2023-03-15T01:34:07;3.38;;;0.30;;
56629;SDS011;42502;40.732;-74.254;2023-03-15T01:36:09;2.35;;;0.20;;
56629;SDS011;42502;40.732;-74.254;2023-03-15T01:38:11;0.90;;;0.20;;
56629;SDS011;42502;40.732;-74.254;2023-03-15T01:40:12;1.38;;;0.20;;
56629;SDS011;42502;40.732;-74.254;2023-03-15T01:42:13;2.05;;;0.28;;
56629;SDS011;42502;40.732;-74.254;2023-03-15T01:44:14;0.93;;;0.10;;
56629;SDS011;42502;40.732;-74.254;2023-03-15T01:48:40;1.48;;;0.10;;
56629;SDS011;42502;40.732;-74.254;2023-03-15T01:50:43;6.45;;;0.28;;
56629;SDS011;42502;40.732;-74.254;2023-03-15T01:52:44;1.98;;;0.25;;
56629;SDS011;42502;40.732;-74.254;2023-03-15T01:54:50;5.55;;;0.20;;
56629;SDS011;42502;40.732;-74.254;2023-03-15T01:56:59;2.88;;;0.20;;
56629;SDS011;42502;40.732;-74.254;2023-03-15T01:59:08;3.30;;;0.20;;
56629;SDS011;42502;40.732;-74.254;2023-03-15T02:01:15;4.15;;;0.20;;
56629;SDS011;42502;40.732;-74.254;2023-03-15T02:03:20;0.90;;;0.25;;
56629;SDS011;42502;40.732;-74.254;2023-03-15T02:05:29;0.40;;;0.20;;
56629;SDS011;42502;40.732;-74.254;2023-03-15T02:07:34;3.55;;;0.30;;
56629;SDS011;42502;40.732;-74.254;2023-03-15T02:12:04;2.25;;;0.22;;
56629;SDS011;42502;40.732;-74.254;2023-03-15T02:14:08;3.42;;;0.20;;
56629;SDS011;42502;40.732;-74.254;2023-03-15T02:16:15;3.63;;;0.20;;
56629;SDS011;42502;40.732;-74.254;2023-03-15T02:18:18;2.58;;;0.30;;
56629;SDS011;42502;40.732;-74.254;2023-03-15T02:20:26;2.25;;;0.20;;
56629;SDS011;42502;40.732;-74.254;2023-03-15T02:26:56;1.95;;;0.22;;
56629;SDS011;42502;40.732;-74.254;2023-03-15T02:28:57;1.20;;;0.13;;
56629;SDS011;42502;40.732;-74.254;2023-03-15T02:30:58;3.45;;;0.20;;
56629;SDS011;42502;40.732;-74.254;2023-03-15T02:33:00;2.65;;;0.20;;
56629;SDS011;42502;40.732;-74.254;2023-03-15T02:35:04;0.38;;;0.10;;
56629;SDS011;42502;40.732;-74.254;2023-03-15T02:37:08;1.45;;;0.20;;
56629;SDS011;42502;40.732;-74.254;2023-03-15T02:39:18;3.83;;;0.10;;
56629;SDS011;42502;40.732;-74.254;2023-03-15T02:41:33;0.70;;;0.20;;
56629;SDS011;42502;40.732;-74.254;2023-03-15T02:43:41;2.20;;;0.20;;
56629;SDS011;42502;40.732;-74.254;2023-03-15T02:45:43;0.63;;;0.10;;
56629;SDS011;42502;40.732;-74.254;2023-03-15T02:47:46;0.43;;;0.20;;
56629;SDS011;42502;40.732;-74.254;2023-03-15T02:49:49;0.77;;;0.10;;
56629;SDS011;42502;40.732;-74.254;2023-03-15T02:51:54;2.97;;;0.20;;
56629;SDS011;42502;40.732;-74.254;2023-03-15T02:53:54;0.90;;;0.20;;
56629;SDS011;42502;40.732;-74.254;2023-03-15T02:55:55;1.40;;;0.28;;
56629;SDS011;42502;40.732;-74.254;2023-03-15T02:57:57;1.58;;;0.13;;
56629;SDS011;42502;40.732;-74.254;2023-03-15T02:59:59;3.03;;;0.45;;
56629;SDS011;42502;40.732;-74.254;2023-03-15T03:02:06;1.20;;;0.10;;
56629;SDS011;42502;40.732;-74.254;2023-03-15T03:04:08;0.50;;;0.10;;
56629;SDS011;42502;40.732;-74.254;2023-03-15T03:06:15;0.35;;;0.20;;
56629;SDS011;42502;40.732;-74.254;2023-03-15T03:08:17;0.40;;;0.10;;
56629;SDS011;42502;40.732;-74.254;2023-03-15T03:10:19;0.10;;;0.10;;
56629;SDS011;42502;40.732;-74.254;2023-03-15T03:12:20;1.00;;;0.15;;
56629;SDS011;42502;40.732;-74.254;2023-03-15T03:14:21;0.50;;;0.15;;
56629;SDS011;42502;40.732;-74.254;2023-03-15T03:16:28;1.20;;;0.13;;
56629;SDS011;42502;40.732;-74.254;2023-03-15T03:18:31;0.50;;;0.10;;
56629;SDS011;42502;40.732;-74.254;2023-03-15T03:20:35;0.32;;;0.10;;
56629;SDS011;42502;40.732;-74.254;2023-03-15T03:22:36;1.00;;;0.13;;
56629;SDS011;42502;40.732;-74.254;2023-03-15T03:24:38;1.17;;;0.10;;
56629;SDS011;42502;40.732;-74.254;2023-03-15T03:26:39;2.20;;;0.10;;
56629;SDS011;42502;40.732;-74.254;2023-03-15T03:28:39;1.13;;;0.30;;
56629;SDS011;42502;40.732;-74.254;2023-03-15T03:30:40;0.30;;;0.28;;
56629;SDS011;42502;40.732;-74.254;2023-03-15T03:32:41;1.85;;;0.10;;
56629;SDS011;42502;40.732;-74.254;2023-03-15T03:34:42;0.17;;;0.10;;
56629;SDS011;42502;40.732;-74.254;2023-03-15T03:36:47;0.30;;;0.10;;
56629;SDS011;42502;40.732;-74.254;2023-03-15T03:38:48;0.95;;;0.20;;
56629;SDS011;42502;40.732;-74.254;2023-03-15T03:40:49;1.40;;;0.13;;
56629;SDS011;42502;40.732;-74.254;2023-03-15T03:42:50;0.20;;;0.10;;
56629;SDS011;42502;40.732;-74.254;2023-03-15T03:44:51;0.68;;;0.13;;
56629;SDS011;42502;40.732;-74.254;2023-03-15T03:46:53;0.20;;;0.10;;
56629;SDS011;42502;40.732;-74.254;2023-03-15T03:48:54;0.57;;;0.03;;
56629;SDS011;42502;40.732;-74.254;2023-03-15T03:50:55;0.28;;;0.10;;
56629;SDS011;42502;40.732;-74.254;2023-03-15T03:52:57;0.52;;;0.20;;
56629;SDS011;42502;40.732;-74.254;2023-03-15T03:54:57;0.25;;;0.10;;
56629;SDS011;42502;40.732;-74.254;2023-03-15T03:56:58;0.40;;;0.10;;
56629;SDS011;42502;40.732;-74.254;2023-03-15T03:58:59;0.10;;;0.05;;
56629;SDS011;42502;40.732;-74.254;2023-03-15T04:01:00;0.30;;;0.20;;
56629;SDS011;42502;40.732;-74.254;2023-03-15T04:03:01;0.10;;;0.10;;
56629;SDS011;42502;40.732;-74.254;2023-03-15T04:05:02;0.05;;;0.05;;
56629;SDS011;42502;40.732;-74.254;2023-03-15T04:07:06;0.38;;;0.00;;
56629;SDS011;42502;40.732;-74.254;2023-03-15T04:09:16;0.20;;;0.03;;
56629;SDS011;42502;40.732;-74.254;2023-03-15T04:11:17;0.30;;;0.10;;
56629;SDS011;42502;40.732;-74.254;2023-03-15T04:13:21;0.45;;;0.10;;
56629;SDS011;42502;40.732;-74.254;2023-03-15T04:15:23;0.20;;;0.10;;
56629;SDS011;42502;40.732;-74.254;2023-03-15T04:17:24;0.57;;;0.10;;
56629;SDS011;42502;40.732;-74.254;2023-03-15T04:19:24;0.55;;;0.10;;
56629;SDS011;42502;40.732;-74.254;2023-03-15T04:21:26;0.10;;;0.10;;
56629;SDS011;42502;40.732;-74.254;2023-03-15T04:23:34;0.10;;;0.10;;
56629;SDS011;42502;40.732;-74.254;2023-03-15T04:25:34;0.15;;;0.00;;
56629;SDS011;42502;40.732;-74.254;2023-03-15T04:27:35;0.10;;;0.10;;
56629;SDS011;42502;40.732;-74.254;2023-03-15T04:29:36;1.38;;;0.10;;
56629;SDS011;42502;40.732;-74.254;2023-03-15T04:31:37;0.30;;;0.10;;
56629;SDS011;42502;40.732;-74.254;2023-03-15T04:33:38;0.20;;;0.08;;
56629;SDS011;42502;40.732;-74.254;2023-03-15T04:35:38;0.30;;;0.08;;
56629;SDS011;42502;40.732;-74.254;2023-03-15T04:37:44;0.13;;;0.00;;
56629;SDS011;42502;40.732;-74.254;2023-03-15T04:39:47;0.10;;;0.10;;
56629;SDS011;42502;40.732;-74.254;2023-03-15T04:41:48;2.40;;;0.13;;
56629;SDS011;42502;40.732;-74.254;2023-03-15T04:43:53;1.05;;;0.10;;
56629;SDS011;42502;40.732;-74.254;2023-03-15T04:45:53;0.43;;;0.10;;
56629;SDS011;42502;40.732;-74.254;2023-03-15T04:47:54;0.10;;;0.10;;
56629;SDS011;42502;40.732;-74.254;2023-03-15T04:49:55;0.45;;;0.10;;
56629;SDS011;42502;40.732;-74.254;2023-03-15T04:51:56;0.20;;;0.10;;
56629;SDS011;42502;40.732;-74.254;2023-03-15T04:53:57;0.15;;;0.08;;
56629;SDS011;42502;40.732;-74.254;2023-03-15T04:55:58;0.20;;;0.03;;
56629;SDS011;42502;40.732;-74.254;2023-03-15T04:57:58;0.20;;;0.10;;
56629;SDS011;42502;40.732;-74.254;2023-03-15T04:59:59;0.52;;;0.10;;
56629;SDS011;42502;40.732;-74.254;2023-03-15T05:02:00;0.47;;;0.10;;
56629;SDS011;42502;40.732;-74.254;2023-03-15T05:04:01;0.10;;;0.10;;
56629;SDS011;42502;40.732;-74.254;2023-03-15T05:06:02;0.90;;;0.03;;
56629;SDS011;42502;40.732;-74.254;2023-03-15T05:08:07;0.30;;;0.10;;
56629;SDS011;42502;40.732;-74.254;2023-03-15T05:10:08;0.20;;;0.10;;
56629;SDS011;42502;40.732;-74.254;2023-03-15T05:12:09;0.20;;;0.00;;
56629;SDS011;42502;40.732;-74.254;2023-03-15T05:14:10;0.20;;;0.10;;
56629;SDS011;42502;40.732;-74.254;2023-03-15T05:16:11;0.13;;;0.10;;
56629;SDS011;42502;40.732;-74.254;2023-03-15T05:18:12;0.10;;;0.10;;
56629;SDS011;42502;40.732;-74.254;2023-03-15T05:20:16;0.22;;;0.20;;
56629;SDS011;42502;40.732;-74.254;2023-03-15T05:22:17;1.60;;;0.10;;
56629;SDS011;42502;40.732;-74.254;2023-03-15T05:24:18;1.95;;;0.00;;
56629;SDS011;42502;40.732;-74.254;2023-03-15T05:26:19;0.52;;;0.10;;
56629;SDS011;42502;40.732;-74.254;2023-03-15T05:28:21;0.00;;;0.00;;
56629;SDS011;42502;40.732;-74.254;2023-03-15T05:30:23;1.48;;;0.00;;
56629;SDS011;42502;40.732;-74.254;2023-03-15T05:32:27;0.13;;;0.00;;
56629;SDS011;42502;40.732;-74.254;2023-03-15T05:34:33;0.85;;;0.03;;
56629;SDS011;42502;40.732;-74.254;2023-03-15T05:36:34;0.03;;;0.00;;
56629;SDS011;42502;40.732;-74.254;2023-03-15T05:38:37;0.43;;;0.00;;
56629;SDS011;42502;40.732;-74.254;2023-03-15T05:40:39;0.10;;;0.00;;
56629;SDS011;42502;40.732;-74.254;2023-03-15T05:42:44;0.10;;;0.00;;
56629;SDS011;42502;40.732;-74.254;2023-03-15T05:44:45;0.00;;;0.00;;
56629;SDS011;42502;40.732;-74.254;2023-03-15T05:46:45;1.58;;;0.00;;
56629;SDS011;42502;40.732;-74.254;2023-03-15T05:48:46;0.03;;;0.03;;
56629;SDS011;42502;40.732;-74.254;2023-03-15T05:50:47;0.00;;;0.00;;
56629;SDS011;42502;40.732;-74.254;2023-03-15T05:52:49;0.20;;;0.00;;
56629;SDS011;42502;40.732;-74.254;2023-03-15T05:54:51;0.20;;;0.10;;
56629;SDS011;42502;40.732;-74.254;2023-03-15T05:56:51;0.00;;;0.00;;
56629;SDS011;42502;40.732;-74.254;2023-03-15T05:58:52;0.10;;;0.00;;
56629;SDS011;42502;40.732;-74.254;2023-03-15T06:00:53;0.10;;;0.10;;
56629;SDS011;42502;40.732;-74.254;2023-03-15T06:02:54;0.20;;;0.00;;
56629;SDS011;42502;40.732;-74.254;2023-03-15T06:04:55;0.00;;;0.00;;
56629;SDS011;42502;40.732;-74.254;2023-03-15T06:06:56;4.20;;;0.38;;
56629;SDS011;42502;40.732;-74.254;2023-03-15T06:08:56;0.22;;;0.10;;
56629;SDS011;42502;40.732;-74.254;2023-03-15T06:10:57;0.25;;;0.00;;
56629;SDS011;42502;40.732;-74.254;2023-03-15T06:12:58;0.00;;;0.00;;
56629;SDS011;42502;40.732;-74.254;2023-03-15T06:14:59;0.45;;;0.03;;
56629;SDS011;42502;40.732;-74.254;2023-03-15T06:17:00;0.10;;;0.00;;
56629;SDS011;42502;40.732;-74.254;2023-03-15T06:19:01;0.77;;;0.00;;
56629;SDS011;42502;40.732;-74.254;2023-03-15T06:21:02;0.10;;;0.10;;
56629;SDS011;42502;40.732;-74.254;2023-03-15T06:23:06;0.13;;;0.00;;
56629;SDS011;42502;40.732;-74.254;2023-03-15T06:25:07;0.10;;;0.00;;
56629;SDS011;42502;40.732;-74.254;2023-03-15T06:27:08;0.63;;;0.30;;
56629;SDS011;42502;40.732;-74.254;2023-03-15T06:29:09;0.77;;;0.10;;
56629;SDS011;42502;40.732;-74.254;2023-03-15T06:31:11;0.00;;;0.00;;
56629;SDS011;42502;40.732;-74.254;2023-03-15T06:33:13;0.10;;;0.00;;
56629;SDS011;42502;40.732;-74.254;2023-03-15T06:35:14;1.35;;;0.00;;
56629;SDS011;42502;40.732;-74.254;2023-03-15T06:37:23;0.20;;;0.00;;
56629;SDS011;42502;40.732;-74.254;2023-03-15T06:39:24;1.10;;;0.03;;
56629;SDS011;42502;40.732;-74.254;2023-03-15T06:41:25;5.25;;;0.10;;
56629;SDS011;42502;40.732;-74.254;2023-03-15T06:43:26;0.10;;;0.00;;
56629;SDS011;42502;40.732;-74.254;2023-03-15T06:45:28;0.00;;;0.00;;
56629;SDS011;42502;40.732;-74.254;2023-03-15T06:47:31;0.52;;;0.00;;
56629;SDS011;42502;40.732;-74.254;2023-03-15T06:49:32;0.50;;;0.00;;
56629;SDS011;42502;40.732;-74.254;2023-03-15T06:51:33;0.17;;;0.00;;
56629;SDS011;42502;40.732;-74.254;2023-03-15T06:53:34;0.35;;;0.00;;
56629;SDS011;42502;40.732;-74.254;2023-03-15T06:55:35;0.15;;;0.00;;
56629;SDS011;42502;40.732;-74.254;2023-03-15T06:57:35;0.00;;;0.00;;
56629;SDS011;42502;40.732;-74.254;2023-03-15T06:59:36;0.40;;;0.00;;
56629;SDS011;42502;40.732;-74.254;2023-03-15T07:01:37;0.10;;;0.00;;
56629;SDS011;42502;40.732;-74.254;2023-03-15T07:03:38;0.00;;;0.00;;
56629;SDS011;42502;40.732;-74.254;2023-03-15T07:05:40;0.08;;;0.00;;
56629;SDS011;42502;40.732;-74.254;2023-03-15T07:07:40;0.20;;;0.00;;
56629;SDS011;42502;40.732;-74.254;2023-03-15T07:09:41;0.43;;;0.10;;
56629;SDS011;42502;40.732;-74.254;2023-03-15T07:11:42;0.10;;;0.00;;
56629;SDS011;42502;40.732;-74.254;2023-03-15T07:13:43;0.00;;;0.00;;
56629;SDS011;42502;40.732;-74.254;2023-03-15T07:15:44;0.00;;;0.00;;
56629;SDS011;42502;40.732;-74.254;2023-03-15T07:17:46;0.38;;;0.00;;
56629;SDS011;42502;40.732;-74.254;2023-03-15T07:19:47;0.00;;;0.00;;
56629;SDS011;42502;40.732;-74.254;2023-03-15T07:21:48;1.45;;;0.00;;
56629;SDS011;42502;40.732;-74.254;2023-03-15T07:23:49;0.00;;;0.00;;
56629;SDS011;42502;40.732;-74.254;2023-03-15T07:25:50;0.25;;;0.00;;
56629;SDS011;42502;40.732;-74.254;2023-03-15T07:27:52;0.00;;;0.00;;
56629;SDS011;42502;40.732;-74.254;2023-03-15T07:29:53;0.10;;;0.00;;
56629;SDS011;42502;40.732;-74.254;2023-03-15T07:31:54;0.30;;;0.10;;
56629;SDS011;42502;40.732;-74.254;2023-03-15T07:33:55;0.00;;;0.00;;
56629;SDS011;42502;40.732;-74.254;2023-03-15T07:35:56;0.00;;;0.00;;
56629;SDS011;42502;40.732;-74.254;2023-03-15T07:38:03;0.90;;;0.00;;
56629;SDS011;42502;40.732;-74.254;2023-03-15T07:40:06;0.25;;;0.10;;
56629;SDS011;42502;40.732;-74.254;2023-03-15T07:42:11;0.20;;;0.00;;
56629;SDS011;42502;40.732;-74.254;2023-03-15T07:44:12;0.17;;;0.10;;
56629;SDS011;42502;40.732;-74.254;2023-03-15T07:46:13;0.00;;;0.00;;
56629;SDS011;42502;40.732;-74.254;2023-03-15T07:48:14;0.55;;;0.10;;
56629;SDS011;42502;40.732;-74.254;2023-03-15T07:50:15;0.10;;;0.00;;
56629;SDS011;42502;40.732;-74.254;2023-03-15T07:52:16;0.00;;;0.00;;
56629;SDS011;42502;40.732;-74.254;2023-03-15T07:54:17;0.57;;;0.00;;
56629;SDS011;42502;40.732;-74.254;2023-03-15T07:56:19;0.00;;;0.00;;
56629;SDS011;42502;40.732;-74.254;2023-03-15T07:58:22;0.20;;;0.00;;
56629;SDS011;42502;40.732;-74.254;2023-03-15T08:00:23;0.00;;;0.00;;
56629;SDS011;42502;40.732;-74.254;2023-03-15T08:02:24;0.00;;;0.00;;
56629;SDS011;42502;40.732;-74.254;2023-03-15T08:04:25;1.15;;;0.00;;
56629;SDS011;42502;40.732;-74.254;2023-03-15T08:06:26;0.10;;;0.00;;
56629;SDS011;42502;40.732;-74.254;2023-03-15T08:08:27;0.00;;;0.00;;
56629;SDS011;42502;40.732;-74.254;2023-03-15T08:10:28;0.20;;;0.00;;
56629;SDS011;42502;40.732;-74.254;2023-03-15T08:12:29;1.00;;;0.00;;
56629;SDS011;42502;40.732;-74.254;2023-03-15T08:14:30;1.95;;;0.00;;
56629;SDS011;42502;40.732;-74.254;2023-03-15T08:16:31;0.30;;;0.00;;
56629;SDS011;42502;40.732;-74.254;2023-03-15T08:18:35;0.95;;;0.00;;
56629;SDS011;42502;40.732;-74.254;2023-03-15T08:20:39;0.20;;;0.00;;
56629;SDS011;42502;40.732;-74.254;2023-03-15T08:22:40;0.15;;;0.08;;
56629;SDS011;42502;40.732;-74.254;2023-03-15T08:26:47;0.10;;;0.00;;
56629;SDS011;42502;40.732;-74.254;2023-03-15T08:28:53;0.63;;;0.03;;
56629;SDS011;42502;40.732;-74.254;2023-03-15T08:30:54;0.20;;;0.05;;
56629;SDS011;42502;40.732;-74.254;2023-03-15T08:32:55;0.30;;;0.00;;
56629;SDS011;42502;40.732;-74.254;2023-03-15T08:34:56;0.13;;;0.00;;
56629;SDS011;42502;40.732;-74.254;2023-03-15T08:36:57;0.00;;;0.00;;
56629;SDS011;42502;40.732;-74.254;2023-03-15T08:38:58;0.00;;;0.00;;
56629;SDS011;42502;40.732;-74.254;2023-03-15T08:40:59;0.90;;;0.00;;
56629;SDS011;42502;40.732;-74.254;2023-03-15T08:43:00;0.10;;;0.00;;
56629;SDS011;42502;40.732;-74.254;2023-03-15T08:45:04;0.90;;;0.00;;
56629;SDS011;42502;40.732;-74.254;2023-03-15T08:47:07;2.85;;;0.00;;
56629;SDS011;42502;40.732;-74.254;2023-03-15T08:49:08;0.00;;;0.00;;
56629;SDS011;42502;40.732;-74.254;2023-03-15T08:51:08;0.00;;;0.00;;
56629;SDS011;42502;40.732;-74.254;2023-03-15T08:53:10;0.00;;;0.00;;
56629;SDS011;42502;40.732;-74.254;2023-03-15T08:55:11;0.03;;;0.00;;
56629;SDS011;42502;40.732;-74.254;2023-03-15T08:57:13;0.57;;;0.00;;
56629;SDS011;42502;40.732;-74.254;2023-03-15T08:59:17;0.00;;;0.00;;
56629;SDS011;42502;40.732;-74.254;2023-03-15T09:01:18;0.47;;;0.00;;
56629;SDS011;42502;40.732;-74.254;2023-03-15T09:03:19;0.10;;;0.00;;
56629;SDS011;42502;40.732;-74.254;2023-03-15T09:05:22;0.32;;;0.00;;
56629;SDS011;42502;40.732;-74.254;2023-03-15T09:07:23;0.82;;;0.00;;
56629;SDS011;42502;40.732;-74.254;2023-03-15T09:09:24;0.20;;;0.00;;
56629;SDS011;42502;40.732;-74.254;2023-03-15T09:11:28;0.00;;;0.00;;
56629;SDS011;42502;40.732;-74.254;2023-03-15T09:13:29;0.00;;;0.00;;
56629;SDS011;42502;40.732;-74.254;2023-03-15T09:15:33;0.00;;;0.00;;
56629;SDS011;42502;40.732;-74.254;2023-03-15T09:17:37;0.00;;;0.00;;
56629;SDS011;42502;40.732;-74.254;2023-03-15T09:19:38;0.00;;;0.00;;
56629;SDS011;42502;40.732;-74.254;2023-03-15T09:21:39;0.68;;;0.00;;
56629;SDS011;42502;40.732;-74.254;2023-03-15T09:23:40;0.00;;;0.00;;
56629;SDS011;42502;40.732;-74.254;2023-03-15T09:25:41;0.05;;;0.00;;
56629;SDS011;42502;40.732;-74.254;2023-03-15T09:27:42;0.00;;;0.00;;
56629;SDS011;42502;40.732;-74.254;2023-03-15T09:29:42;0.00;;;0.00;;
56629;SDS011;42502;40.732;-74.254;2023-03-15T09:31:43;0.00;;;0.00;;
56629;SDS011;42502;40.732;-74.254;2023-03-15T09:33:44;0.00;;;0.00;;
56629;SDS011;42502;40.732;-74.254;2023-03-15T09:35:45;0.00;;;0.00;;
56629;SDS011;42502;40.732;-74.254;2023-03-15T09:37:47;1.25;;;0.00;;
56629;SDS011;42502;40.732;-74.254;2023-03-15T09:39:52;0.03;;;0.00;;
56629;SDS011;42502;40.732;-74.254;2023-03-15T09:41:53;0.00;;;0.00;;
56629;SDS011;42502;40.732;-74.254;2023-03-15T09:44:07;0.00;;;0.00;;
56629;SDS011;42502;40.732;-74.254;2023-03-15T09:46:31;0.00;;;0.00;;
56629;SDS011;42502;40.732;-74.254;2023-03-15T09:48:43;0.20;;;0.00;;
56629;SDS011;42502;40.732;-74.254;2023-03-15T09:50:55;0.38;;;0.03;;
56629;SDS011;42502;40.732;-74.254;2023-03-15T09:53:07;1.10;;;0.00;;
56629;SDS011;42502;40.732;-74.254;2023-03-15T09:55:28;0.20;;;0.05;;
56629;SDS011;42502;40.732;-74.254;2023-03-15T09:57:51;0.08;;;0.00;;
56629;SDS011;42502;40.732;-74.254;2023-03-15T09:59:58;0.65;;;0.00;;
56629;SDS011;42502;40.732;-74.254;2023-03-15T10:02:15;0.00;;;0.00;;
56629;SDS011;42502;40.732;-74.254;2023-03-15T10:04:37;0.00;;;0.00;;
56629;SDS011;42502;40.732;-74.254;2023-03-15T10:06:42;0.00;;;0.00;;
56629;SDS011;42502;40.732;-74.254;2023-03-15T10:08:49;0.10;;;0.00;;
56629;SDS011;42502;40.732;-74.254;2023-03-15T10:16:45;0.03;;;0.00;;
56629;SDS011;42502;40.732;-74.254;2023-03-15T10:21:05;0.00;;;0.00;;
56629;SDS011;42502;40.732;-74.254;2023-03-15T10:25:34;0.17;;;0.00;;
56629;SDS011;42502;40.732;-74.254;2023-03-15T10:32:30;0.00;;;0.00;;
56629;SDS011;42502;40.732;-74.254;2023-03-15T10:34:37;0.10;;;0.00;;
56629;SDS011;42502;40.732;-74.254;2023-03-15T10:36:45;0.00;;;0.00;;
56629;SDS011;42502;40.732;-74.254;2023-03-15T10:39:07;0.00;;;0.00;;
56629;SDS011;42502;40.732;-74.254;2023-03-15T10:41:12;0.00;;;0.00;;
56629;SDS011;42502;40.732;-74.254;2023-03-15T10:43:30;1.00;;;0.00;;
56629;SDS011;42502;40.732;-74.254;2023-03-15T10:45:35;0.00;;;0.00;;
56629;SDS011;42502;40.732;-74.254;2023-03-15T10:47:41;0.00;;;0.00;;
56629;SDS011;42502;40.732;-74.254;2023-03-15T10:49:43;0.10;;;0.00;;
56629;SDS011;42502;40.732;-74.254;2023-03-15T10:51:45;0.03;;;0.00;;
56629;SDS011;42502;40.732;-74.254;2023-03-15T10:54:30;0.17;;;0.00;;
56629;SDS011;42502;40.732;-74.254;2023-03-15T10:56:16;0.30;;;0.00;;
56629;SDS011;42502;40.732;-74.254;2023-03-15T10:58:28;0.10;;;0.00;;
56629;SDS011;42502;40.732;-74.254;2023-03-15T11:00:39;0.00;;;0.00;;
56629;SDS011;42502;40.732;-74.254;2023-03-15T11:02:50;1.08;;;0.00;;
56629;SDS011;42502;40.732;-74.254;2023-03-15T11:05:02;0.40;;;0.00;;
56629;SDS011;42502;40.732;-74.254;2023-03-15T11:07:19;0.00;;;0.00;;
56629;SDS011;42502;40.732;-74.254;2023-03-15T11:09:20;0.00;;;0.00;;
56629;SDS011;42502;40.732;-74.254;2023-03-15T11:11:24;0.38;;;0.00;;
56629;SDS011;42502;40.732;-74.254;2023-03-15T11:13:26;1.58;;;0.05;;
56629;SDS011;42502;40.732;-74.254;2023-03-15T11:15:37;0.57;;;0.00;;
56629;SDS011;42502;40.732;-74.254;2023-03-15T11:17:44;0.50;;;0.10;;
56629;SDS011;42502;40.732;-74.254;2023-03-15T11:20:30;1.30;;;0.10;;
56629;SDS011;42502;40.732;-74.254;2023-03-15T11:22:19;1.08;;;0.10;;
56629;SDS011;42502;40.732;-74.254;2023-03-15T11:24:28;0.52;;;0.08;;
56629;SDS011;42502;40.732;-74.254;2023-03-15T11:26:32;4.10;;;0.00;;
56629;SDS011;42502;40.732;-74.254;2023-03-15T11:28:35;1.08;;;0.00;;
56629;SDS011;42502;40.732;-74.254;2023-03-15T11:30:41;0.13;;;0.08;;
56629;SDS011;42502;40.732;-74.254;2023-03-15T11:32:43;0.10;;;0.10;;
56629;SDS011;42502;40.732;-74.254;2023-03-15T11:37:11;1.05;;;0.00;;
56629;SDS011;42502;40.732;-74.254;2023-03-15T11:39:23;2.28;;;0.10;;
56629;SDS011;42502;40.732;-74.254;2023-03-15T11:41:38;0.10;;;0.00;;
56629;SDS011;42502;40.732;-74.254;2023-03-15T11:46:23;1.95;;;0.10;;
56629;SDS011;42502;40.732;-74.254;2023-03-15T11:50:47;0.05;;;0.05;;
56629;SDS011;42502;40.732;-74.254;2023-03-15T11:52:53;1.05;;;0.10;;
56629;SDS011;42502;40.732;-74.254;2023-03-15T11:54:57;1.33;;;0.10;;
56629;SDS011;42502;40.732;-74.254;2023-03-15T11:57:01;1.48;;;0.00;;
56629;SDS011;42502;40.732;-74.254;2023-03-15T11:59:06;1.55;;;0.00;;
56629;SDS011;42502;40.732;-74.254;2023-03-15T12:01:28;1.30;;;0.00;;
56629;SDS011;42502;40.732;-74.254;2023-03-15T12:03:32;1.10;;;0.10;;
56629;SDS011;42502;40.732;-74.254;2023-03-15T12:05:49;0.10;;;0.00;;
56629;SDS011;42502;40.732;-74.254;2023-03-15T12:07:59;3.03;;;0.45;;
56629;SDS011;42502;40.732;-74.254;2023-03-15T12:10:28;0.73;;;0.00;;
56629;SDS011;42502;40.732;-74.254;2023-03-15T12:14:33;6.50;;;0.10;;
56629;SDS011;42502;40.732;-74.254;2023-03-15T12:16:43;8.95;;;0.20;;
56629;SDS011;42502;40.732;-74.254;2023-03-15T12:18:45;3.15;;;0.10;;
56629;SDS011;42502;40.732;-74.254;2023-03-15T12:21:11;0.85;;;0.20;;
56629;SDS011;42502;40.732;-74.254;2023-03-15T12:25:31;3.00;;;0.20;;
56629;SDS011;42502;40.732;-74.254;2023-03-15T12:27:36;0.55;;;0.20;;
56629;SDS011;42502;40.732;-74.254;2023-03-15T12:29:40;6.93;;;0.30;;
56629;SDS011;42502;40.732;-74.254;2023-03-15T12:31:57;1.58;;;0.30;;
56629;SDS011;42502;40.732;-74.254;2023-03-15T12:34:02;2.75;;;0.30;;
56629;SDS011;42502;40.732;-74.254;2023-03-15T12:36:08;3.15;;;0.57;;
56629;SDS011;42502;40.732;-74.254;2023-03-15T12:38:22;4.80;;;0.30;;
56629;SDS011;42502;40.732;-74.254;2023-03-15T12:48:49;4.22;;;0.30;;
56629;SDS011;42502;40.732;-74.254;2023-03-15T12:51:40;1.75;;;0.30;;